createdAt,value
2018-11-03T00:02:36.584Z,7.93
2018-11-03T00:05:10.741Z,8.20
2018-11-03T00:07:43.815Z,9.73
2018-11-03T00:10:16.290Z,8.37
2018-11-03T00:12:48.620Z,9.20
2018-11-03T00:15:21.113Z,9.20
2018-11-03T00:17:53.535Z,7.73
2018-11-03T00:20:25.973Z,8.63
2018-11-03T00:22:58.317Z,8.03
2018-11-03T00:25:37.590Z,9.00
2018-11-03T00:28:10.004Z,7.97
2018-11-03T00:30:43.397Z,8.10
2018-11-03T00:33:15.794Z,8.20
2018-11-03T00:35:48.145Z,8.10
2018-11-03T00:38:20.456Z,6.93
2018-11-03T00:40:52.972Z,7.67
2018-11-03T00:43:25.266Z,7.33
2018-11-03T00:45:57.608Z,8.30
2018-11-03T00:48:29.934Z,7.43
2018-11-03T00:51:02.323Z,7.57
2018-11-03T00:53:35.674Z,7.90
2018-11-03T00:56:13.877Z,6.43
2018-11-03T00:58:48.766Z,7.57
2018-11-03T01:01:23.321Z,7.90
2018-11-03T01:04:01.053Z,7.67
2018-11-03T01:06:33.986Z,8.00
2018-11-03T01:09:08.951Z,7.37
2018-11-03T01:11:42.363Z,6.67
2018-11-03T01:14:15.543Z,8.80
2018-11-03T01:16:48.273Z,7.13
2018-11-03T01:19:21.178Z,8.17
2018-11-03T01:21:53.902Z,7.80
2018-11-03T01:24:26.329Z,6.60
2018-11-03T01:26:59.646Z,7.70
2018-11-03T01:29:32.046Z,7.57
2018-11-03T01:32:04.507Z,6.00
2018-11-03T01:34:36.954Z,6.90
2018-11-03T01:37:09.325Z,7.27
2018-11-03T01:39:43.956Z,7.93
2018-11-03T01:42:16.286Z,7.27
2018-11-03T01:44:48.763Z,7.43
2018-11-03T01:47:21.764Z,7.77
2018-11-03T01:49:54.846Z,7.80
2018-11-03T01:52:27.150Z,7.17
2018-11-03T01:54:59.694Z,7.03
2018-11-03T01:57:31.989Z,5.90
2018-11-03T02:00:04.990Z,6.93
2018-11-03T02:02:37.689Z,5.87
2018-11-03T02:05:10.469Z,7.40
2018-11-03T02:07:42.763Z,7.77
2018-11-03T02:10:15.091Z,7.47
2018-11-03T02:12:47.590Z,6.97
2018-11-03T02:15:19.906Z,8.20
2018-11-03T02:17:52.373Z,6.87
2018-11-03T02:20:24.889Z,8.23
2018-11-03T02:22:57.202Z,8.03
2018-11-03T02:25:29.638Z,6.67
2018-11-03T02:28:02.003Z,6.33
2018-11-03T02:30:34.539Z,6.83
2018-11-03T02:33:06.946Z,7.20
2018-11-03T02:35:39.330Z,6.70
2018-11-03T02:38:11.743Z,7.50
2018-11-03T02:40:44.029Z,6.87
2018-11-03T02:43:16.415Z,6.67
2018-11-03T02:45:48.750Z,6.07
2018-11-03T02:48:21.224Z,7.63
2018-11-03T02:50:53.800Z,7.43
2018-11-03T02:53:26.173Z,6.77
2018-11-03T02:55:58.479Z,7.60
2018-11-03T02:58:30.864Z,7.63
2018-11-03T03:01:03.229Z,7.67
2018-11-03T03:03:35.527Z,8.07
2018-11-03T03:06:07.921Z,8.70
2018-11-03T03:08:40.190Z,7.50
2018-11-03T03:11:12.514Z,7.13
2018-11-03T03:13:44.937Z,7.20
2018-11-03T03:16:17.214Z,7.47
2018-11-03T03:18:49.527Z,6.67
2018-11-03T03:21:22.006Z,7.10
2018-11-03T03:23:54.406Z,7.47
2018-11-03T03:26:26.893Z,8.53
2018-11-03T03:28:59.433Z,6.67
2018-11-03T03:31:31.670Z,6.23
2018-11-03T03:34:04.499Z,7.40
2018-11-03T03:36:37.001Z,7.77
2018-11-03T03:39:10.459Z,8.63
2018-11-03T03:41:42.760Z,7.33
2018-11-03T03:44:15.049Z,8.10
2018-11-03T03:46:47.349Z,8.27
2018-11-03T03:49:19.687Z,6.70
2018-11-03T03:51:52.357Z,7.77
2018-11-03T03:54:24.683Z,7.90
2018-11-03T03:56:57.005Z,8.20
2018-11-03T03:59:29.361Z,7.30
2018-11-03T04:02:01.984Z,9.00
2018-11-03T04:04:34.306Z,7.80
2018-11-03T04:07:06.739Z,6.90
2018-11-03T04:09:39.137Z,6.73
2018-11-03T04:12:11.528Z,7.47
2018-11-03T04:14:43.801Z,7.87
2018-11-03T04:17:16.137Z,7.40
2018-11-03T04:19:48.425Z,7.27
2018-11-03T04:22:20.865Z,7.70
2018-11-03T04:24:53.158Z,8.40
2018-11-03T04:27:25.542Z,8.90
2018-11-03T04:29:57.842Z,8.60
2018-11-03T04:32:30.278Z,7.93
2018-11-03T04:35:02.618Z,9.27
2018-11-03T04:37:34.921Z,8.13
2018-11-03T04:40:08.878Z,8.97
2018-11-03T04:42:41.698Z,9.37
2018-11-03T04:45:14.144Z,8.23
2018-11-03T04:47:46.577Z,8.20
2018-11-03T04:50:18.881Z,8.87
2018-11-03T04:52:51.190Z,8.30
2018-11-03T04:55:23.639Z,9.47
2018-11-03T04:57:55.843Z,7.97
2018-11-03T05:00:28.135Z,9.70
2018-11-03T05:03:00.541Z,8.10
2018-11-03T05:05:32.811Z,8.20
2018-11-03T05:08:05.341Z,9.03
2018-11-03T05:10:37.679Z,8.77
2018-11-03T05:13:10.094Z,7.50
2018-11-03T05:15:42.561Z,8.67
2018-11-03T05:18:14.897Z,7.40
2018-11-03T05:20:47.174Z,8.23
2018-11-03T05:23:19.941Z,6.83
2018-11-03T05:25:52.362Z,7.97
2018-11-03T05:28:24.675Z,8.33
2018-11-03T05:30:57.105Z,7.77
2018-11-03T05:33:29.495Z,6.97
2018-11-03T05:36:01.859Z,8.50
2018-11-03T05:38:34.259Z,8.53
2018-11-03T05:41:06.656Z,7.80
2018-11-03T05:43:39.101Z,8.10
2018-11-03T05:46:11.533Z,6.77
2018-11-03T05:48:43.996Z,7.83
2018-11-03T05:51:16.477Z,8.27
2018-11-03T05:53:48.859Z,7.47
2018-11-03T05:56:21.358Z,8.00
2018-11-03T05:58:53.752Z,8.40
2018-11-03T06:01:26.091Z,6.67
2018-11-03T06:03:58.481Z,8.57
2018-11-03T06:06:30.762Z,8.97
2018-11-03T06:09:03.911Z,7.17
2018-11-03T06:11:36.229Z,8.93
2018-11-03T06:14:08.566Z,7.63
2018-11-03T06:16:41.159Z,8.63
2018-11-03T06:19:13.459Z,7.87
2018-11-03T06:21:45.786Z,8.27
2018-11-03T06:24:18.135Z,9.30
2018-11-03T06:26:50.463Z,7.73
2018-11-03T06:29:22.766Z,8.17
2018-11-03T06:31:55.119Z,8.70
2018-11-03T06:34:27.466Z,9.50
2018-11-03T06:36:59.804Z,10.47
2018-11-03T06:39:32.216Z,15.23
2018-11-03T06:42:05.326Z,19.10
2018-11-03T06:44:37.605Z,17.97
2018-11-03T06:47:10.046Z,12.73
2018-11-03T06:49:42.776Z,9.60
2018-11-03T06:52:15.405Z,8.80
2018-11-03T06:54:47.655Z,8.83
2018-11-03T06:57:19.937Z,8.50
2018-11-03T06:59:52.299Z,9.83
2018-11-03T07:02:24.702Z,9.07
2018-11-03T07:04:57.052Z,8.33
2018-11-03T07:07:29.327Z,8.00
2018-11-03T07:10:02.068Z,9.23
2018-11-03T07:12:34.489Z,9.30
2018-11-03T07:15:06.808Z,10.63
2018-11-03T07:17:39.130Z,9.60
2018-11-03T07:20:12.510Z,10.17
2018-11-03T07:22:44.843Z,10.17
2018-11-03T07:25:17.407Z,11.00
2018-11-03T07:27:49.737Z,9.67
2018-11-03T07:30:22.347Z,9.47
2018-11-03T07:32:54.666Z,11.30
2018-11-03T07:35:27.133Z,11.33
2018-11-03T07:37:59.545Z,12.50
2018-11-03T07:40:32.016Z,12.23
2018-11-03T07:43:04.696Z,11.97
2018-11-03T07:45:37.231Z,11.20
2018-11-03T07:48:09.774Z,10.97
2018-11-03T07:50:41.995Z,10.83
2018-11-03T07:53:14.351Z,10.20
2018-11-03T07:55:46.775Z,11.47
2018-11-03T07:58:19.208Z,10.93
2018-11-03T08:00:51.721Z,10.23
2018-11-03T08:03:24.049Z,11.60
2018-11-03T08:05:56.414Z,11.87
2018-11-03T08:08:28.868Z,13.07
2018-11-03T08:11:01.576Z,11.90
2018-11-03T08:13:33.995Z,11.57
2018-11-03T08:16:06.545Z,10.37
2018-11-03T08:18:38.862Z,10.97
2018-11-03T08:21:11.229Z,11.27
2018-11-03T08:23:43.804Z,10.97
2018-11-03T08:26:16.291Z,10.53
2018-11-03T08:28:48.690Z,11.87
2018-11-03T08:31:21.048Z,11.90
2018-11-03T08:33:53.470Z,12.83
2018-11-03T08:36:25.814Z,11.90
2018-11-03T08:38:58.343Z,13.03
2018-11-03T08:41:30.647Z,13.13
2018-11-03T08:44:03.009Z,13.30
2018-11-03T08:46:35.359Z,14.00
2018-11-03T08:49:07.931Z,12.90
2018-11-03T08:51:40.955Z,14.00
2018-11-03T08:54:13.510Z,13.87
2018-11-03T08:56:46.200Z,13.37
2018-11-03T08:59:18.538Z,12.57
2018-11-03T09:01:51.008Z,13.50
2018-11-03T09:04:23.574Z,11.57
2018-11-03T09:06:55.946Z,14.17
2018-11-03T09:09:28.334Z,13.73
2018-11-03T09:12:00.634Z,13.77
2018-11-03T09:14:33.138Z,14.43
2018-11-03T09:17:05.486Z,14.70
2018-11-03T09:19:37.814Z,13.77
2018-11-03T09:22:11.287Z,13.80
2018-11-03T09:24:43.842Z,13.20
2018-11-03T09:27:16.458Z,13.77
2018-11-03T09:29:51.986Z,14.67
2018-11-03T09:32:25.647Z,12.83
2018-11-03T09:34:59.094Z,14.90
2018-11-03T09:37:33.456Z,13.97
2018-11-03T09:40:07.802Z,12.67
2018-11-03T09:42:40.799Z,11.70
2018-11-03T09:45:13.517Z,11.43
2018-11-03T09:47:48.951Z,13.10
2018-11-03T09:50:21.535Z,13.23
2018-11-03T09:52:56.056Z,13.43
2018-11-03T09:55:29.313Z,14.27
2018-11-03T09:58:04.132Z,13.90
2018-11-03T10:00:37.566Z,14.07
2018-11-03T10:03:10.439Z,12.07
2018-11-03T10:05:44.375Z,12.90
2018-11-03T10:08:22.862Z,11.93
2018-11-03T10:10:55.505Z,12.60
2018-11-03T10:13:28.437Z,10.67
2018-11-03T10:16:01.006Z,10.73
2018-11-03T10:18:33.319Z,11.17
2018-11-03T10:21:06.074Z,11.90
2018-11-03T10:23:38.898Z,10.43
2018-11-03T10:26:11.225Z,9.70
2018-11-03T10:28:43.956Z,10.47
2018-11-03T10:31:16.262Z,10.47
2018-11-03T10:33:48.698Z,11.43
2018-11-03T10:36:20.944Z,11.07
2018-11-03T10:38:53.318Z,9.30
2018-11-03T10:41:25.655Z,12.17
2018-11-03T10:43:58.060Z,10.60
2018-11-03T10:46:31.664Z,10.67
2018-11-03T10:49:06.957Z,12.10
2018-11-03T10:51:39.429Z,10.47
2018-11-03T10:54:12.706Z,10.93
2018-11-03T10:56:45.301Z,9.80
2018-11-03T10:59:17.829Z,13.00
2018-11-03T11:01:55.882Z,12.47
2018-11-03T11:04:35.188Z,11.50
2018-11-03T11:07:13.464Z,10.97
2018-11-03T11:09:52.324Z,11.57
2018-11-03T11:12:31.503Z,11.00
2018-11-03T11:15:04.057Z,11.40
2018-11-03T11:17:36.553Z,11.57
2018-11-03T11:20:09.471Z,11.00
2018-11-03T11:22:41.887Z,10.57
2018-11-03T11:25:14.381Z,11.73
2018-11-03T11:27:46.837Z,12.03
2018-11-03T11:30:19.256Z,10.50
2018-11-03T11:32:51.926Z,12.53
2018-11-03T11:35:24.909Z,12.63
2018-11-03T11:37:57.387Z,10.03
2018-11-03T11:40:30.130Z,10.60
2018-11-03T11:43:04.599Z,11.90
2018-11-03T11:45:37.096Z,11.63
2018-11-03T11:48:09.878Z,11.83
2018-11-03T11:50:42.307Z,12.67
2018-11-03T11:53:14.929Z,11.60
2018-11-03T11:55:47.354Z,10.43
2018-11-03T11:58:20.596Z,12.10
2018-11-03T12:00:56.310Z,10.13
2018-11-03T12:03:28.780Z,11.33
2018-11-03T12:06:01.420Z,11.83
2018-11-03T12:08:34.090Z,11.73
2018-11-03T12:11:06.480Z,11.33
2018-11-03T12:13:40.080Z,9.07
2018-11-03T12:16:15.006Z,9.83
2018-11-03T12:18:51.350Z,11.00
2018-11-03T12:21:26.028Z,9.73
2018-11-03T12:24:00.175Z,10.60
2018-11-03T12:26:32.950Z,11.60
2018-11-03T12:29:05.582Z,11.33
2018-11-03T12:31:39.163Z,11.57
2018-11-03T12:34:11.626Z,13.20
2018-11-03T12:36:44.546Z,10.07
2018-11-03T12:39:16.941Z,10.47
2018-11-03T12:41:49.362Z,10.87
2018-11-03T12:44:22.006Z,9.83
2018-11-03T12:46:54.442Z,12.37
2018-11-03T12:49:26.869Z,10.17
2018-11-03T12:51:59.570Z,10.17
2018-11-03T12:54:32.111Z,9.73
2018-11-03T12:57:04.801Z,11.53
2018-11-03T12:59:37.160Z,11.43
2018-11-03T13:02:09.488Z,10.77
2018-11-03T13:04:42.202Z,9.67
2018-11-03T13:07:14.793Z,9.83
2018-11-03T13:09:47.875Z,9.28
2018-11-03T13:12:20.955Z,12.63
2018-11-03T13:14:53.895Z,11.03
2018-11-03T13:17:26.238Z,10.97
2018-11-03T13:19:58.974Z,11.63
2018-11-03T13:22:32.085Z,10.80
2018-11-03T13:25:05.196Z,10.47
2018-11-03T13:27:38.271Z,12.80
2018-11-03T13:30:12.794Z,11.83
2018-11-03T13:32:46.678Z,10.73
2018-11-03T13:35:23.513Z,12.23
2018-11-03T13:37:58.950Z,11.57
2018-11-03T13:40:31.410Z,12.03
2018-11-03T13:43:04.704Z,10.47
2018-11-03T13:45:38.509Z,11.03
2018-11-03T13:50:54.412Z,11.68
2018-11-03T13:53:26.932Z,10.30
2018-11-03T13:56:04.273Z,10.40
2018-11-03T13:58:36.830Z,10.35
2018-11-03T14:01:12.398Z,11.13
2018-11-03T14:03:45.243Z,8.70
2018-11-03T14:06:20.964Z,9.93
2018-11-03T14:08:54.481Z,9.80
2018-11-03T14:11:26.863Z,11.47
2018-11-03T14:13:59.275Z,11.27
2018-11-03T14:16:33.255Z,10.83
2018-11-03T14:19:05.691Z,10.53
2018-11-03T14:21:38.166Z,8.70
2018-11-03T14:24:10.639Z,10.77
2018-11-03T14:29:21.792Z,10.27
2018-11-03T14:31:54.304Z,10.37
2018-11-03T14:34:27.033Z,9.93
2018-11-03T14:36:59.387Z,11.00
2018-11-03T14:39:31.741Z,13.20
2018-11-03T14:42:04.201Z,13.00
2018-11-03T14:44:36.665Z,12.70
2018-11-03T14:47:09.971Z,11.70
2018-11-03T14:49:42.342Z,11.83
2018-11-03T14:52:14.829Z,13.47
2018-11-03T14:54:49.747Z,13.20
2018-11-03T14:57:22.277Z,11.90
2018-11-03T14:59:54.795Z,12.63
2018-11-03T15:02:27.399Z,10.57
2018-11-03T15:04:59.809Z,13.70
2018-11-03T15:07:32.181Z,11.80
2018-11-03T15:10:05.649Z,12.47
2018-11-03T15:12:38.064Z,13.17
2018-11-03T15:15:12.226Z,13.20
2018-11-03T15:17:45.170Z,13.27
2018-11-03T15:20:17.559Z,13.53
2018-11-03T15:22:49.996Z,11.27
2018-11-03T15:25:22.497Z,12.97
2018-11-03T15:27:54.943Z,10.97
2018-11-03T15:30:27.510Z,14.33
2018-11-03T15:33:00.009Z,12.77
2018-11-03T15:35:32.528Z,16.03
2018-11-03T15:38:06.123Z,13.47
2018-11-03T15:40:38.585Z,11.10
2018-11-03T15:43:12.456Z,13.27
2018-11-03T15:45:45.050Z,13.57
2018-11-03T15:48:17.584Z,11.50
2018-11-03T15:50:50.539Z,12.93
2018-11-03T15:53:23.549Z,13.57
2018-11-03T15:55:56.165Z,13.10
2018-11-03T15:58:28.646Z,12.73
2018-11-03T16:01:01.143Z,10.33
2018-11-03T16:03:33.789Z,10.33
2018-11-03T16:06:06.180Z,16.67
2018-11-03T16:08:40.506Z,15.57
2018-11-03T16:11:13.428Z,13.90
2018-11-03T16:13:50.192Z,14.17
2018-11-03T16:16:23.253Z,14.33
2018-11-03T16:18:55.774Z,12.53
2018-11-03T16:21:28.481Z,12.30
2018-11-03T16:24:08.306Z,13.33
2018-11-03T16:26:43.842Z,13.20
2018-11-03T16:29:16.234Z,12.93
2018-11-03T16:31:48.615Z,12.43
2018-11-03T16:34:21.008Z,11.37
2018-11-03T16:37:00.248Z,11.83
2018-11-03T16:39:35.468Z,13.23
2018-11-03T16:42:07.856Z,11.67
2018-11-03T16:44:40.280Z,13.50
2018-11-03T16:47:13.025Z,11.43
2018-11-03T16:49:45.391Z,13.33
2018-11-03T16:52:17.956Z,12.53
2018-11-03T16:54:50.252Z,14.07
2018-11-03T16:57:22.669Z,13.07
2018-11-03T16:59:54.980Z,13.27
2018-11-03T17:02:27.693Z,13.77
2018-11-03T17:05:00.102Z,13.03
2018-11-03T17:07:32.481Z,13.47
2018-11-03T17:10:07.304Z,12.43
2018-11-03T17:12:41.119Z,14.43
2018-11-03T17:15:13.514Z,16.60
2018-11-03T17:17:46.043Z,13.23
2018-11-03T17:20:18.624Z,13.67
2018-11-03T17:22:51.105Z,11.67
2018-11-03T17:25:23.597Z,12.80
2018-11-03T17:27:56.047Z,12.67
2018-11-03T17:30:28.394Z,13.57
2018-11-03T17:33:01.056Z,11.80
2018-11-03T17:35:33.509Z,12.47
2018-11-03T17:38:05.896Z,11.23
2018-11-03T17:40:38.261Z,11.10
2018-11-03T17:43:10.859Z,11.87
2018-11-03T17:45:43.166Z,13.50
2018-11-03T17:48:15.553Z,13.07
2018-11-03T17:50:48.091Z,10.43
2018-11-03T17:56:00.387Z,11.73
2018-11-03T17:58:32.952Z,14.67
2018-11-03T18:01:05.429Z,15.47
2018-11-03T18:03:38.140Z,15.23
2018-11-03T18:06:10.519Z,14.67
2018-11-03T18:08:42.975Z,14.43
2018-11-03T18:11:16.075Z,12.90
2018-11-03T18:13:48.533Z,13.13
2018-11-03T18:16:21.059Z,15.40
2018-11-03T18:18:53.622Z,14.03
2018-11-03T18:21:25.946Z,14.77
2018-11-03T18:23:58.335Z,14.13
2018-11-03T18:26:30.743Z,15.30
2018-11-03T18:29:03.137Z,12.40
2018-11-03T18:31:35.505Z,12.07
2018-11-03T18:34:07.898Z,14.57
2018-11-03T18:36:40.313Z,13.23
2018-11-03T18:39:12.681Z,13.00
2018-11-03T18:41:45.271Z,12.30
2018-11-03T18:44:17.643Z,14.30
2018-11-03T18:46:50.167Z,14.07
2018-11-03T18:49:22.491Z,13.20
2018-11-03T18:51:55.228Z,16.13
2018-11-03T18:54:27.732Z,12.70
2018-11-03T18:57:00.322Z,14.63
2018-11-03T18:59:32.770Z,16.87
2018-11-03T19:02:05.778Z,15.17
2018-11-03T19:04:38.350Z,15.57
2018-11-03T19:07:11.039Z,14.40
2018-11-03T19:09:43.489Z,14.30
2018-11-03T19:12:15.896Z,15.53
2018-11-03T19:14:48.267Z,14.40
2018-11-03T19:17:20.796Z,15.00
2018-11-03T19:19:53.342Z,14.13
2018-11-03T19:22:26.007Z,13.97
2018-11-03T19:24:58.442Z,15.03
2018-11-03T19:27:31.050Z,12.63
2018-11-03T19:30:04.421Z,12.63
2018-11-03T19:32:36.823Z,12.87
2018-11-03T19:35:09.439Z,17.63
2018-11-03T19:37:42.271Z,14.60
2018-11-03T19:40:14.812Z,15.30
2018-11-03T19:42:47.343Z,13.57
2018-11-03T19:45:20.046Z,14.77
2018-11-03T19:47:52.414Z,12.90
2018-11-03T19:50:24.929Z,18.27
2018-11-03T19:52:57.380Z,16.30
2018-11-03T19:55:29.749Z,16.47
2018-11-03T19:58:02.292Z,16.27
2018-11-03T20:00:34.844Z,16.57
2018-11-03T20:03:07.469Z,14.90
2018-11-03T20:05:39.811Z,14.80
2018-11-03T20:08:12.329Z,15.20
2018-11-03T20:10:44.754Z,14.83
2018-11-03T20:13:17.310Z,15.07
2018-11-03T20:15:49.863Z,15.80
2018-11-03T20:18:22.455Z,14.57
2018-11-03T20:20:54.820Z,13.20
2018-11-03T20:23:27.477Z,15.10
2018-11-03T20:25:59.976Z,15.50
2018-11-03T20:28:32.317Z,14.43
2018-11-03T20:31:04.933Z,14.30
2018-11-03T20:33:37.303Z,12.57
2018-11-03T20:36:09.810Z,14.73
2018-11-03T20:38:42.159Z,14.83
2018-11-03T20:41:14.673Z,17.90
2018-11-03T20:43:47.092Z,15.80
2018-11-03T20:46:19.659Z,13.20
2018-11-03T20:48:51.982Z,16.63
2018-11-03T20:51:24.453Z,13.07
2018-11-03T20:53:57.290Z,15.77
2018-11-03T20:56:29.855Z,15.13
2018-11-03T20:59:02.418Z,15.57
2018-11-03T21:01:34.860Z,12.37
2018-11-03T21:04:07.336Z,13.10
2018-11-03T21:06:39.930Z,14.17
2018-11-03T21:09:12.299Z,14.83
2018-11-03T21:11:45.098Z,15.90
2018-11-03T21:14:17.452Z,18.03
2018-11-03T21:16:49.929Z,14.13
2018-11-03T21:19:22.382Z,12.27
2018-11-03T21:21:54.821Z,16.57
2018-11-03T21:24:28.648Z,14.50
2018-11-03T21:27:01.180Z,19.00
2018-11-03T21:29:33.739Z,16.37
2018-11-03T21:32:06.939Z,16.27
2018-11-03T21:34:39.247Z,14.23
2018-11-03T21:37:11.861Z,13.40
2018-11-03T21:39:45.587Z,13.37
2018-11-03T21:42:20.037Z,16.13
2018-11-03T21:44:54.194Z,17.07
2018-11-03T21:47:27.002Z,18.50
2018-11-03T21:49:59.865Z,16.13
2018-11-03T21:52:32.612Z,15.23
2018-11-03T21:55:05.897Z,17.53
2018-11-03T21:57:38.306Z,19.37
2018-11-03T22:00:11.580Z,18.50
2018-11-03T22:02:45.299Z,17.03
2018-11-03T22:05:18.577Z,16.60
2018-11-03T22:07:52.271Z,15.90
2018-11-03T22:10:26.042Z,15.10
2018-11-03T22:12:58.551Z,16.57
2018-11-03T22:15:30.912Z,14.87
2018-11-03T22:18:03.302Z,14.40
2018-11-03T22:20:35.719Z,14.10
2018-11-03T22:23:08.031Z,14.70
2018-11-03T22:25:40.534Z,17.93
2018-11-03T22:28:13.026Z,16.17
2018-11-03T22:30:46.971Z,16.57
2018-11-03T22:33:20.483Z,14.50
2018-11-03T22:35:53.217Z,14.27
2018-11-03T22:38:26.077Z,17.27
2018-11-03T22:40:58.533Z,13.77
2018-11-03T22:43:30.954Z,17.27
2018-11-03T22:46:03.396Z,14.83
2018-11-03T22:48:35.817Z,16.30
2018-11-03T22:51:14.108Z,18.13
2018-11-03T22:53:49.078Z,19.33
2018-11-03T22:56:22.296Z,15.83
2018-11-03T22:58:54.821Z,16.60
2018-11-03T23:01:28.008Z,15.00
2018-11-03T23:04:00.571Z,14.13
2018-11-03T23:06:32.972Z,15.73
2018-11-03T23:09:06.166Z,16.67
2018-11-03T23:11:38.525Z,15.43
2018-11-03T23:14:11.013Z,14.57
2018-11-03T23:16:43.466Z,15.33
2018-11-03T23:19:16.493Z,17.17
2018-11-03T23:21:50.060Z,15.87
2018-11-03T23:24:23.470Z,17.03
2018-11-03T23:26:56.333Z,18.27
2018-11-03T23:29:28.977Z,19.17
2018-11-03T23:32:01.349Z,15.63
2018-11-03T23:34:33.991Z,17.10
2018-11-03T23:37:06.969Z,16.83
2018-11-03T23:39:39.390Z,16.07
2018-11-03T23:42:11.837Z,20.00
2018-11-03T23:44:45.118Z,22.40
2018-11-03T23:47:19.131Z,18.93
2018-11-03T23:49:52.807Z,19.73
2018-11-03T23:52:31.071Z,17.43
2018-11-03T23:55:05.082Z,19.30
2018-11-03T23:57:37.780Z,18.97
